Time;durP1;ratioP1;P1;durP2;ratioP2;P2;SDS_P1;SDS_P2;PMS_P1;PMS_P2;Temp;Humidity;BMP_temperature;BMP_pressure;BME280_temperature;BME280_humidity;BME280_pressure;Samples;Min_cycle;Max_cycle;Signal;HPM_P1;HPM_P2
2022/07/29 00:00:47;;;;;;;;;;;;;;;19.14;92.38;95421.78;5114856;28;1047;-50
2022/07/29 00:03:13;;;;;;;;;;;;;;;19.26;91.80;95422.03;5114512;28;1016;-50
2022/07/29 00:05:40;;;;;;;;;;;;;;;19.24;91.22;95426.81;5114870;28;2000;-50
2022/07/29 00:08:06;;;;;;;;;;;;;;;19.21;90.18;95411.78;5114416;28;1025;-50
2022/07/29 00:10:32;;;;;;;;;;;;;;;19.17;89.79;95415.16;5114573;28;1079;-50
2022/07/29 00:12:58;;;;;;;;;;;;;;;19.11;89.62;95416.81;5114558;28;989;-50
2022/07/29 00:15:24;;;;;;;;;;;;;;;19.05;89.79;95417.66;5114505;28;1088;-50
2022/07/29 00:17:50;;;;;;;;;;;;;;;18.86;90.11;95419.28;5114233;28;1037;-51
2022/07/29 00:20:16;;;;;;;;;;;;;;;18.77;90.40;95415.91;5114661;28;978;-50
2022/07/29 00:22:42;;;;;;;;;;;;;;;18.69;91.27;95413.41;5114493;28;1028;-50
2022/07/29 00:25:09;;;;;;;;;;;;;;;18.97;89.42;95412.41;5114209;28;1917;-50
2022/07/29 00:27:35;;;;;;;;;;;;;;;19.09;89.29;95406.16;5114306;28;1023;-50
2022/07/29 00:30:02;;;;;;;;;;;;;;;19.18;88.78;95409.53;5114362;28;996;-50
2022/07/29 00:32:28;;;;;;;;;;;;;;;19.08;89.65;95406.38;5114002;28;1087;-50
2022/07/29 00:37:38;;;;;;;;;;;;;;;19.06;89.65;95408.47;5114222;28;974;-50
2022/07/29 00:40:05;;;;;;;;;;;;;;;19.16;88.61;95398.06;5114050;28;1033;-50
2022/07/29 00:42:40;;;;;;;;;;;;;;;19.08;88.73;95393.69;5113215;28;1149;-50
2022/07/29 00:45:06;;;;;;;;;;;;;;;19.03;88.91;95392.63;5093541;28;1909;-50
2022/07/29 00:47:32;;;;;;;;;;;;;;;18.98;89.37;95390.53;5093725;28;1012;-50
2022/07/29 00:49:58;;;;;;;;;;;;;;;18.78;90.21;95393.22;5093819;28;1045;-50
2022/07/29 00:52:24;;;;;;;;;;;;;;;18.65;90.33;95391.31;5093510;28;1094;-50
2022/07/29 00:54:51;;;;;;;;;;;;;;;18.50;90.78;95388.78;5093682;28;1020;-50
2022/07/29 00:57:17;;;;;;;;;;;;;;;18.60;90.93;95392.97;5093504;28;1028;-50
2022/07/29 00:59:43;;;;;;;;;;;;;;;18.64;91.09;95391.50;5093312;28;1033;-50
2022/07/29 01:02:09;;;;;;;;;;;;;;;18.65;90.88;95388.59;5093470;28;1045;-50
2022/07/29 01:04:35;;;;;;;;;;;;;;;18.64;91.47;95388.78;5093523;28;1086;-50
2022/07/29 01:07:02;;;;;;;;;;;;;;;18.53;90.15;95385.66;5093531;28;1914;-50
2022/07/29 01:09:29;;;;;;;;;;;;;;;18.30;91.04;95391.41;5093218;28;1259;-50
2022/07/29 01:11:55;;;;;;;;;;;;;;;18.25;91.56;95404.72;5075543;28;1009;-50
2022/07/29 01:14:21;;;;;;;;;;;;;;;18.39;91.42;95392.06;5093105;28;985;-50
2022/07/29 01:17:07;;;;;;;;;;;;;;;18.48;90.41;95392.72;5093615;28;1014;-50
2022/07/29 01:19:52;;;;;;;;;;;;;;;18.56;90.61;95392.53;5042031;28;1154;-50
2022/07/29 01:22:41;;;;;;;;;;;;;;;18.53;90.86;95391.06;5093294;28;1024;-50
2022/07/29 01:25:17;;;;;;;;;;;;;;;18.46;90.35;95389.41;5079952;28;2002;-50
2022/07/29 01:27:46;;;;;;;;;;;;;;;18.28;90.69;95389.94;5093476;28;970;-49
2022/07/29 01:30:12;;;;;;;;;;;;;;;18.41;89.84;95383.75;5092998;28;1867;-50
2022/07/29 01:32:39;;;;;;;;;;;;;;;18.47;90.24;95383.75;5093315;28;1016;-49
2022/07/29 01:35:05;;;;;;;;;;;;;;;18.46;90.37;95384.81;5092958;28;961;-49
2022/07/29 01:37:34;;;;;;;;;;;;;;;18.50;90.74;95385.25;5093149;28;1020;-50
2022/07/29 01:40:01;;;;;;;;;;;;;;;18.48;90.96;95390.84;5092955;28;1091;-50
2022/07/29 01:42:33;;;;;;;;;;;;;;;18.37;90.52;95387.91;5093158;28;1154;-50
2022/07/29 01:45:12;;;;;;;;;;;;;;;18.19;90.09;95380.34;5113443;28;1033;-50
2022/07/29 01:47:59;;;;;;;;;;;;;;;18.23;90.07;95387.88;5113458;28;1053;-50
2022/07/29 01:50:29;;;;;;;;;;;;;;;18.20;90.11;95380.16;5113405;28;1031;-50
2022/07/29 01:53:04;;;;;;;;;;;;;;;18.30;89.29;95368.94;5114088;28;965;-50
2022/07/29 01:55:32;;;;;;;;;;;;;;;18.18;90.27;95378.69;5113309;28;1012;-50
2022/07/29 01:57:59;;;;;;;;;;;;;;;18.12;90.12;95373.03;5113431;28;1023;-50
2022/07/29 02:00:26;;;;;;;;;;;;;;;17.88;90.28;95376.28;5113528;28;973;-50
2022/07/29 02:02:53;;;;;;;;;;;;;;;17.75;91.29;95368.88;5113538;28;970;-50
2022/07/29 02:05:21;;;;;;;;;;;;;;;17.83;91.39;95367.88;5113083;28;2004;-50
2022/07/29 02:07:47;;;;;;;;;;;;;;;18.07;89.80;95367.41;5113377;28;968;-50
2022/07/29 02:10:15;;;;;;;;;;;;;;;18.11;89.47;95373.25;5112917;28;1091;-50
2022/07/29 02:12:42;;;;;;;;;;;;;;;17.91;90.37;95374.00;5113372;28;964;-49
2022/07/29 02:15:09;;;;;;;;;;;;;;;17.90;90.81;95374.19;5116708;28;1041;-49
2022/07/29 02:17:40;;;;;;;;;;;;;;;17.86;90.73;95367.53;5117129;28;1209;-50
2022/07/29 02:20:07;;;;;;;;;;;;;;;17.78;90.51;95367.66;5116745;28;1045;-50
2022/07/29 02:22:35;;;;;;;;;;;;;;;17.63;90.93;95371.31;5116943;28;1224;-50
2022/07/29 02:25:01;;;;;;;;;;;;;;;17.53;91.43;95377.09;5116570;28;1092;-50
2022/07/29 02:27:28;;;;;;;;;;;;;;;17.80;90.73;95365.59;5116526;28;1984;-50
2022/07/29 02:29:55;;;;;;;;;;;;;;;17.94;90.11;95370.03;5116693;28;1068;-49
2022/07/29 02:32:23;;;;;;;;;;;;;;;17.92;90.44;95372.94;5116668;28;1040;-50
2022/07/29 02:34:50;;;;;;;;;;;;;;;17.91;90.27;95360.47;5116529;28;980;-50
2022/07/29 02:37:16;;;;;;;;;;;;;;;17.85;90.80;95360.44;5116559;28;1031;-50
2022/07/29 02:39:43;;;;;;;;;;;;;;;17.66;91.65;95362.81;5116333;28;1019;-50
2022/07/29 02:42:11;;;;;;;;;;;;;;;17.61;91.57;95365.28;5116266;28;1019;-50
2022/07/29 02:44:37;;;;;;;;;;;;;;;17.58;91.77;95365.69;5097944;28;1165;-50
2022/07/29 02:47:09;;;;;;;;;;;;;;;17.50;91.07;95368.56;5095941;28;1914;-50
2022/07/29 02:49:38;;;;;;;;;;;;;;;17.43;90.96;95371.19;5095667;28;1029;-50
2022/07/29 02:52:19;;;;;;;;;;;;;;;17.44;92.02;95370.19;5095710;28;1851;-50
2022/07/29 02:54:54;;;;;;;;;;;;;;;17.65;91.56;95363.84;5095526;28;957;-50
2022/07/29 02:57:22;;;;;;;;;;;;;;;17.61;91.60;95372.56;5095793;28;1028;-50
2022/07/29 02:59:50;;;;;;;;;;;;;;;17.68;91.12;95373.41;5095611;28;1028;-50
2022/07/29 03:02:17;;;;;;;;;;;;;;;17.72;91.30;95372.84;5095526;28;1073;-50
2022/07/29 03:04:43;;;;;;;;;;;;;;;17.76;91.29;95379.50;5095504;28;1041;-50
2022/07/29 03:07:10;;;;;;;;;;;;;;;17.76;90.55;95382.22;5095293;28;1910;-49
2022/07/29 03:09:37;;;;;;;;;;;;;;;17.73;91.15;95381.78;5095566;28;1080;-49
2022/07/29 03:12:03;;;;;;;;;;;;;;;17.68;90.26;95384.25;5095204;28;1055;-50
2022/07/29 03:14:30;;;;;;;;;;;;;;;17.62;91.12;95385.88;5095481;28;1072;-50
2022/07/29 03:16:57;;;;;;;;;;;;;;;17.52;90.27;95380.00;5095266;28;1052;-49
2022/07/29 03:19:23;;;;;;;;;;;;;;;17.48;90.53;95381.44;5095197;28;1032;-50
2022/07/29 03:21:49;;;;;;;;;;;;;;;17.30;90.67;95377.38;5094991;28;1021;-50
2022/07/29 03:24:25;;;;;;;;;;;;;;;17.39;90.95;95375.34;5095372;28;1038;-50
2022/07/29 03:26:51;;;;;;;;;;;;;;;17.60;89.44;95368.19;5094876;28;1905;-50
2022/07/29 03:29:17;;;;;;;;;;;;;;;17.78;89.04;95379.31;5095122;28;958;-50
2022/07/29 03:31:43;;;;;;;;;;;;;;;17.87;89.81;95380.00;5094955;28;1076;-50
2022/07/29 03:34:09;;;;;;;;;;;;;;;17.73;90.38;95382.59;5094966;28;1048;-50
2022/07/29 03:36:35;;;;;;;;;;;;;;;17.57;91.21;95382.94;5094716;28;1008;-50
2022/07/29 03:39:02;;;;;;;;;;;;;;;17.56;91.45;95384.78;5095126;28;1223;-49
2022/07/29 03:41:29;;;;;;;;;;;;;;;17.57;90.18;95382.94;5094909;28;1024;-50
2022/07/29 03:43:56;;;;;;;;;;;;;;;17.38;91.42;95389.91;5107210;28;1201;-50
2022/07/29 03:46:23;;;;;;;;;;;;;;;17.31;92.01;95387.13;5114875;28;1992;-50
2022/07/29 03:48:52;;;;;;;;;;;;;;;17.32;92.11;95386.13;5115107;28;1013;-49
2022/07/29 03:51:18;;;;;;;;;;;;;;;17.35;92.82;95380.28;5114731;28;1020;-50
2022/07/29 03:53:44;;;;;;;;;;;;;;;17.58;91.73;95381.91;5115028;28;1881;-50
2022/07/29 03:56:15;;;;;;;;;;;;;;;17.63;90.98;95376.75;5114834;28;1000;-50
2022/07/29 03:58:41;;;;;;;;;;;;;;;17.69;91.66;95378.63;5115035;28;986;-49
2022/07/29 04:01:07;;;;;;;;;;;;;;;17.88;90.41;95378.97;5114711;28;1043;-50
2022/07/29 04:03:34;;;;;;;;;;;;;;;18.00;90.63;95385.47;5114749;28;1048;-50
2022/07/29 04:06:01;;;;;;;;;;;;;;;18.05;90.47;95393.00;5114745;28;2030;-49
2022/07/29 04:08:27;;;;;;;;;;;;;;;18.03;90.76;95382.38;5114534;28;1079;-50
2022/07/29 04:10:53;;;;;;;;;;;;;;;17.89;90.39;95386.91;5114700;28;1057;-49
2022/07/29 04:13:20;;;;;;;;;;;;;;;17.87;91.47;95385.41;5114646;28;1029;-49
2022/07/29 04:15:46;;;;;;;;;;;;;;;18.01;91.74;95389.03;5114463;28;1096;-50
2022/07/29 04:18:12;;;;;;;;;;;;;;;18.12;91.21;95391.16;5114788;28;1052;-49
2022/07/29 04:20:38;;;;;;;;;;;;;;;18.28;90.94;95389.94;5114454;28;1036;-50
2022/07/29 04:23:04;;;;;;;;;;;;;;;18.43;91.32;95385.19;5114397;28;969;-50
2022/07/29 04:25:30;;;;;;;;;;;;;;;18.58;90.85;95382.31;5114505;28;1913;-50
2022/07/29 04:28:01;;;;;;;;;;;;;;;18.67;90.97;95383.81;5114156;28;1028;-49
2022/07/29 04:30:28;;;;;;;;;;;;;;;18.68;90.90;95384.63;5114418;28;966;-50
2022/07/29 04:32:54;;;;;;;;;;;;;;;18.79;91.31;95396.75;5114093;28;1019;-50
2022/07/29 04:35:20;;;;;;;;;;;;;;;18.95;90.45;95395.53;5114193;28;1007;-50
2022/07/29 04:37:46;;;;;;;;;;;;;;;18.87;90.81;95394.69;5113960;28;1044;-50
2022/07/29 04:40:12;;;;;;;;;;;;;;;18.79;91.99;95394.84;5096183;28;974;-50
2022/07/29 04:42:38;;;;;;;;;;;;;;;19.01;91.20;95392.84;5112378;28;1094;-50
2022/07/29 04:45:05;;;;;;;;;;;;;;;19.17;89.93;95394.28;5093630;28;1124;-49
2022/07/29 04:47:31;;;;;;;;;;;;;;;19.20;89.38;95393.03;5093423;28;1906;-50
2022/07/29 04:49:57;;;;;;;;;;;;;;;19.29;87.73;95398.06;5093914;28;1017;-50
2022/07/29 04:52:23;;;;;;;;;;;;;;;19.36;88.01;95399.91;5093592;28;977;-49
2022/07/29 04:54:49;;;;;;;;;;;;;;;19.47;86.80;95407.41;5093705;28;1053;-49
2022/07/29 04:57:15;;;;;;;;;;;;;;;19.58;87.45;95406.78;5093381;28;1036;-50
2022/07/29 04:59:41;;;;;;;;;;;;;;;19.78;87.13;95404.03;5093558;28;1040;-50
2022/07/29 05:02:07;;;;;;;;;;;;;;;19.77;84.34;95401.53;5093272;28;1037;-50
2022/07/29 05:04:33;;;;;;;;;;;;;;;19.87;86.56;95404.66;5093389;28;994;-50
2022/07/29 05:06:59;;;;;;;;;;;;;;;19.97;85.62;95404.22;5093400;28;1905;-50
2022/07/29 05:09:25;;;;;;;;;;;;;;;20.19;86.96;95399.34;5093382;28;1226;-50
2022/07/29 05:11:51;;;;;;;;;;;;;;;20.19;86.31;95402.06;5093223;28;1021;-50
2022/07/29 05:14:17;;;;;;;;;;;;;;;20.31;84.88;95403.03;5093365;28;1067;-50
2022/07/29 05:16:43;;;;;;;;;;;;;;;20.56;83.72;95399.56;5093257;28;972;-49
2022/07/29 05:19:09;;;;;;;;;;;;;;;20.94;82.93;95405.00;5093180;28;1072;-49
2022/07/29 05:21:35;;;;;;;;;;;;;;;21.40;81.70;95406.53;5093569;28;1079;-50
2022/07/29 05:24:01;;;;;;;;;;;;;;;21.67;79.18;95408.22;5093322;28;990;-50
2022/07/29 05:26:27;;;;;;;;;;;;;;;21.37;79.92;95398.81;5093130;28;1965;-50
2022/07/29 05:28:54;;;;;;;;;;;;;;;21.39;79.70;95407.56;5093147;28;1044;-50
2022/07/29 05:31:20;;;;;;;;;;;;;;;21.39;80.98;95407.56;5093086;28;1020;-50
2022/07/29 05:33:46;;;;;;;;;;;;;;;21.61;80.84;95418.09;5093005;28;1866;-50
2022/07/29 05:36:12;;;;;;;;;;;;;;;21.52;80.19;95416.72;5093293;28;1029;-49
2022/07/29 05:38:38;;;;;;;;;;;;;;;21.40;81.08;95417.41;5093184;28;960;-49
2022/07/29 05:41:04;;;;;;;;;;;;;;;21.68;79.66;95420.75;5093010;28;1049;-50
2022/07/29 05:43:30;;;;;;;;;;;;;;;22.12;78.36;95421.53;5101885;28;1158;-50
2022/07/29 05:45:57;;;;;;;;;;;;;;;22.77;75.37;95423.72;5113423;28;1909;-50
2022/07/29 05:48:23;;;;;;;;;;;;;;;22.93;72.15;95422.22;5114422;28;1131;-50
2022/07/29 05:50:49;;;;;;;;;;;;;;;22.56;74.58;95433.22;5117626;28;1040;-50
2022/07/29 05:53:16;;;;;;;;;;;;;;;22.51;75.54;95435.78;5117246;28;1027;-50
2022/07/29 05:55:42;;;;;;;;;;;;;;;22.72;75.46;95437.19;5117280;28;918;-50
2022/07/29 05:58:08;;;;;;;;;;;;;;;23.12;74.93;95434.75;5117071;28;1016;-50
2022/07/29 06:00:34;;;;;;;;;;;;;;;23.14;74.43;95431.78;5117215;28;1197;-50
2022/07/29 06:03:00;;;;;;;;;;;;;;;22.79;75.27;95436.03;5116895;28;1046;-51
2022/07/29 06:05:26;;;;;;;;;;;;;;;22.60;77.44;95437.97;5117186;28;1913;-50
2022/07/29 06:07:53;;;;;;;;;;;;;;;22.41;76.72;95430.88;5117089;28;969;-51
2022/07/29 06:10:19;;;;;;;;;;;;;;;22.45;77.73;95434.00;5116778;28;1574;-50
2022/07/29 06:12:45;;;;;;;;;;;;;;;22.60;78.06;95426.25;5116864;28;1085;-51
2022/07/29 06:15:11;;;;;;;;;;;;;;;22.50;78.39;95428.66;5116818;28;969;-50
2022/07/29 06:17:37;;;;;;;;;;;;;;;22.45;78.31;95428.53;5116819;28;1063;-51
2022/07/29 06:20:03;;;;;;;;;;;;;;;22.49;78.56;95432.47;5116874;28;1043;-51
2022/07/29 06:22:30;;;;;;;;;;;;;;;22.76;80.16;95425.59;5116743;28;930;-50
2022/07/29 06:24:56;;;;;;;;;;;;;;;22.70;78.92;95422.97;5116675;28;946;-51
2022/07/29 06:27:22;;;;;;;;;;;;;;;22.69;78.71;95426.72;5116525;28;1914;-50
2022/07/29 06:29:48;;;;;;;;;;;;;;;22.66;77.94;95411.69;5116571;28;1007;-50
2022/07/29 06:32:14;;;;;;;;;;;;;;;22.85;78.20;95422.56;5116465;28;1008;-50
2022/07/29 06:34:40;;;;;;;;;;;;;;;23.02;77.81;95428.19;5116575;28;1048;-50
2022/07/29 06:37:07;;;;;;;;;;;;;;;23.24;76.31;95425.75;5116429;28;1048;-50
2022/07/29 06:39:34;;;;;;;;;;;;;;;23.22;78.32;95427.91;5116563;28;1052;-50
2022/07/29 06:42:00;;;;;;;;;;;;;;;23.23;76.89;95427.66;5116471;28;1039;-50
2022/07/29 06:44:26;;;;;;;;;;;;;;;23.34;75.04;95423.31;5099369;28;1158;-50
2022/07/29 06:46:52;;;;;;;;;;;;;;;23.31;76.89;95432.78;5096107;28;1906;-50
2022/07/29 06:49:18;;;;;;;;;;;;;;;23.21;76.22;95429.81;5095851;28;1017;-50
2022/07/29 06:51:44;;;;;;;;;;;;;;;23.21;77.50;95424.34;5096105;28;1023;-51
2022/07/29 06:54:10;;;;;;;;;;;;;;;23.50;75.25;95419.88;5095759;28;924;-51
2022/07/29 06:56:37;;;;;;;;;;;;;;;23.76;74.51;95425.97;5095760;28;1040;-51
2022/07/29 06:59:04;;;;;;;;;;;;;;;24.05;73.44;95426.09;5095144;28;954;-51
2022/07/29 07:01:30;;;;;;;;;;;;;;;24.18;72.08;95417.63;5095619;28;980;-51
2022/07/29 07:03:56;;;;;;;;;;;;;;;24.42;72.65;95425.81;5095670;28;1036;-50
2022/07/29 07:06:22;;;;;;;;;;;;;;;24.56;71.55;95419.00;5095324;28;1909;-50
2022/07/29 07:08:48;;;;;;;;;;;;;;;24.86;70.76;95415.22;5095261;28;1105;-51
2022/07/29 07:11:14;;;;;;;;;;;;;;;25.10;70.50;95419.50;5095441;28;1079;-51
2022/07/29 07:13:40;;;;;;;;;;;;;;;25.22;69.74;95421.34;5095360;28;1843;-51
2022/07/29 07:16:06;;;;;;;;;;;;;;;25.12;69.25;95411.88;5095122;28;1974;-51
2022/07/29 07:18:32;;;;;;;;;;;;;;;24.89;68.38;95409.25;5095557;28;966;-51
2022/07/29 09:15:46;;;;;;;;;;;;;;;28.04;56.54;95358.94;2888463;28;2270;-53
2022/07/29 09:18:32;;;;;;;;;;;;;;;27.76;59.11;95355.44;5093474;28;1045;-49
2022/07/29 09:24:01;;;;;;;;;;;;;;;27.72;57.28;95348.84;5097066;28;977;-49
2022/07/29 09:26:28;;;;;;;;;;;;;;;27.64;58.63;95354.78;5097206;28;2012;-49
2022/07/29 09:28:54;;;;;;;;;;;;;;;27.58;58.55;95351.19;5097611;28;1012;-50
2022/07/29 09:31:26;;;;;;;;;;;;;;;27.94;57.76;95354.19;5097229;28;996;-49
2022/07/29 09:33:52;;;;;;;;;;;;;;;28.05;57.58;95360.59;5097341;28;999;-49
2022/07/29 09:36:19;;;;;;;;;;;;;;;27.86;58.82;95346.44;5097268;28;1117;-49
2022/07/29 09:38:56;;;;;;;;;;;;;;;28.13;57.49;95340.84;5097351;28;963;-49
2022/07/29 09:41:22;;;;;;;;;;;;;;;27.81;56.87;95347.25;5097121;28;1012;-50
2022/07/29 09:43:58;;;;;;;;;;;;;;;27.59;57.93;95343.78;5108488;28;1942;-50
2022/07/29 09:46:24;;;;;;;;;;;;;;;27.68;59.31;95335.88;5117178;28;1897;-49
2022/07/29 09:49:09;;;;;;;;;;;;;;;27.90;58.25;95335.78;5117694;28;987;-50
2022/07/29 09:51:36;;;;;;;;;;;;;;;27.81;59.73;95333.50;5117291;28;1080;-50
2022/07/29 09:54:20;;;;;;;;;;;;;;;27.85;59.59;95329.13;5117470;28;1022;-49
2022/07/29 09:56:47;;;;;;;;;;;;;;;28.02;59.03;95323.50;5117108;28;1131;-49
2022/07/29 09:59:13;;;;;;;;;;;;;;;27.89;58.53;95323.13;5117142;28;964;-49
2022/07/29 10:01:39;;;;;;;;;;;;;;;28.11;57.54;95320.22;5117259;28;984;-49
2022/07/29 10:04:05;;;;;;;;;;;;;;;28.19;60.34;95311.44;5117229;28;1011;-49
2022/07/29 10:06:31;;;;;;;;;;;;;;;28.36;58.69;95312.09;5116998;28;1901;-50
2022/07/29 10:09:24;;;;;;;;;;;;;;;28.45;58.26;95301.38;5117156;28;1043;-49
2022/07/29 10:12:06;;;;;;;;;;;;;;;28.53;56.13;95305.56;5112493;28;1377;-50
2022/07/29 10:14:33;;;;;;;;;;;;;;;28.60;57.69;95295.94;5117178;28;1047;-50
2022/07/29 10:17:00;;;;;;;;;;;;;;;28.65;56.79;95299.81;5105699;28;1083;-50
2022/07/29 10:19:30;;;;;;;;;;;;;;;28.54;54.86;95297.03;5096518;28;1027;-49
2022/07/29 10:22:00;;;;;;;;;;;;;;;28.51;54.96;95288.47;5096304;28;1023;-49
2022/07/29 10:24:27;;;;;;;;;;;;;;;28.66;57.19;95284.97;5096295;28;1020;-50
2022/07/29 10:26:55;;;;;;;;;;;;;;;28.79;57.29;95279.75;5096102;28;1960;-50
2022/07/29 10:29:21;;;;;;;;;;;;;;;28.86;56.97;95282.25;5096205;28;1025;-50
2022/07/29 10:32:06;;;;;;;;;;;;;;;28.89;57.49;95273.44;5078313;28;1063;-50
2022/07/29 10:34:50;;;;;;;;;;;;;;;28.97;57.90;95269.34;5095448;28;1108;-49
2022/07/29 10:37:18;;;;;;;;;;;;;;;28.98;56.69;95271.78;5095911;28;1083;-50
2022/07/29 10:39:56;;;;;;;;;;;;;;;29.00;56.48;95269.59;5096148;28;1040;-50
2022/07/29 10:42:24;;;;;;;;;;;;;;;29.04;56.04;95266.28;5095797;28;1040;-49
2022/07/29 10:44:51;;;;;;;;;;;;;;;29.09;55.63;95266.31;5116073;28;1261;-49
2022/07/29 10:47:24;;;;;;;;;;;;;;;29.09;55.56;95260.78;5116003;28;1913;-49
2022/07/29 10:49:59;;;;;;;;;;;;;;;29.07;57.08;95254.75;5116481;28;1037;-49
2022/07/29 10:52:46;;;;;;;;;;;;;;;29.17;56.26;95252.00;5116182;28;1056;-49
2022/07/29 10:55:30;;;;;;;;;;;;;;;29.12;52.99;95247.31;5101971;28;1763;-50
2022/07/29 10:58:15;;;;;;;;;;;;;;;29.12;55.45;95249.22;5098123;28;982;-50
2022/07/29 11:00:41;;;;;;;;;;;;;;;29.12;53.90;95243.72;5098166;28;1064;-50
2022/07/29 11:03:07;;;;;;;;;;;;;;;29.13;54.04;95242.66;5115916;28;969;-49
2022/07/29 11:05:51;;;;;;;;;;;;;;;29.23;56.23;95239.06;5116114;28;1040;-49
2022/07/29 11:08:21;;;;;;;;;;;;;;;29.33;53.34;95239.03;5115983;28;1038;-50
2022/07/29 11:10:51;;;;;;;;;;;;;;;29.33;54.18;95228.03;5115941;28;1046;-49
2022/07/29 11:13:36;;;;;;;;;;;;;;;29.38;55.36;95225.25;5115822;28;1064;-50
2022/07/29 11:16:02;;;;;;;;;;;;;;;29.48;56.33;95218.91;5115660;28;1087;-50
2022/07/29 11:18:28;;;;;;;;;;;;;;;29.52;56.68;95223.59;5115580;28;2093;-49
2022/07/29 11:20:54;;;;;;;;;;;;;;;29.53;53.16;95225.22;5115646;28;1087;-50
2022/07/29 11:23:24;;;;;;;;;;;;;;;29.63;54.87;95221.63;5115634;28;1071;-50
2022/07/29 11:26:09;;;;;;;;;;;;;;;29.64;54.86;95216.97;5115779;28;1890;-50
2022/07/29 11:28:53;;;;;;;;;;;;;;;29.61;52.06;95206.50;5115461;28;968;-49
2022/07/29 11:31:41;;;;;;;;;;;;;;;29.60;53.33;95208.44;5115680;28;1015;-50
2022/07/29 11:34:29;;;;;;;;;;;;;;;29.64;51.30;95201.25;5115356;28;1008;-50
2022/07/29 11:37:12;;;;;;;;;;;;;;;29.71;53.47;95196.25;5115450;28;1048;-49
2022/07/29 11:39:42;;;;;;;;;;;;;;;29.81;51.82;95194.63;5115394;28;1027;-49
2022/07/29 11:42:20;;;;;;;;;;;;;;;29.75;50.99;95178.09;5115143;28;1229;-49
2022/07/29 11:45:00;;;;;;;;;;;;;;;29.82;51.98;95185.22;5095371;28;1225;-49
2022/07/29 11:47:27;;;;;;;;;;;;;;;29.92;54.99;95185.19;5094077;28;1992;-49
2022/07/29 11:49:54;;;;;;;;;;;;;;;30.00;56.17;95183.78;5094450;28;1074;-50
2022/07/29 11:52:21;;;;;;;;;;;;;;;30.00;51.17;95187.34;5094794;28;1104;-49
2022/07/29 11:54:47;;;;;;;;;;;;;;;30.02;48.99;95178.81;5094479;28;1016;-51
2022/07/29 11:57:15;;;;;;;;;;;;;;;29.98;48.42;95178.53;5094662;28;960;-51
2022/07/29 11:59:42;;;;;;;;;;;;;;;30.01;49.10;95177.97;5094314;28;1213;-51
2022/07/29 12:02:09;;;;;;;;;;;;;;;30.08;49.64;95177.66;5094449;28;1974;-51
2022/07/29 12:04:48;;;;;;;;;;;;;;;30.14;50.32;95174.56;5094268;28;1040;-51
2022/07/29 12:07:14;;;;;;;;;;;;;;;30.20;51.62;95172.63;5076221;28;1988;-51
2022/07/29 12:09:48;;;;;;;;;;;;;;;30.25;50.23;95177.28;5094286;28;1017;-51
2022/07/29 12:12:15;;;;;;;;;;;;;;;30.26;50.19;95178.91;5094293;28;1028;-51
2022/07/29 12:14:45;;;;;;;;;;;;;;;30.26;47.38;95179.78;5094126;28;997;-51
2022/07/29 12:17:25;;;;;;;;;;;;;;;30.27;47.58;95175.88;5093976;28;1096;-51
2022/07/29 12:19:51;;;;;;;;;;;;;;;30.26;46.80;95171.50;5094246;28;1065;-51
2022/07/29 12:22:27;;;;;;;;;;;;;;;30.30;50.08;95174.50;5094180;28;1063;-51
2022/07/29 12:24:54;;;;;;;;;;;;;;;30.24;45.68;95168.19;5094044;28;1046;-51
2022/07/29 12:27:20;;;;;;;;;;;;;;;30.21;46.45;95171.53;5093890;28;1971;-51
2022/07/29 12:30:00;;;;;;;;;;;;;;;30.25;46.41;95166.25;5093788;28;1023;-51
2022/07/29 12:32:36;;;;;;;;;;;;;;;30.31;45.58;95165.13;5093987;28;1075;-51
2022/07/29 12:35:04;;;;;;;;;;;;;;;30.33;45.12;95163.72;5093809;28;1060;-51
2022/07/29 12:37:30;;;;;;;;;;;;;;;30.36;45.50;95160.41;5093914;28;1044;-51
2022/07/29 12:39:56;;;;;;;;;;;;;;;30.39;47.92;95158.19;5093630;28;1032;-51
2022/07/29 12:42:22;;;;;;;;;;;;;;;30.40;46.49;95148.81;5094048;28;1072;-51
2022/07/29 12:44:49;;;;;;;;;;;;;;;30.48;47.58;95153.72;5113331;28;1169;-52
2022/07/29 12:47:17;;;;;;;;;;;;;;;30.52;46.62;95154.78;5114142;28;1985;-51
2022/07/29 12:49:44;;;;;;;;;;;;;;;30.55;46.19;95149.53;5114016;28;1011;-51
2022/07/29 12:52:25;;;;;;;;;;;;;;;30.61;45.30;95141.22;5114021;28;946;-52
2022/07/29 12:54:51;;;;;;;;;;;;;;;30.64;48.50;95141.47;5113812;28;1064;-52
2022/07/29 12:57:17;;;;;;;;;;;;;;;30.58;46.37;95128.00;5113756;28;1025;-51
2022/07/29 12:59:43;;;;;;;;;;;;;;;30.53;47.07;95124.16;5113750;28;1091;-51
2022/07/29 13:02:21;;;;;;;;;;;;;;;30.66;44.71;95124.63;5113990;28;966;-51
2022/07/29 13:04:55;;;;;;;;;;;;;;;30.63;46.52;95136.22;5113708;28;1106;-54
2022/07/29 13:07:24;;;;;;;;;;;;;;;30.66;47.01;95130.16;5113690;28;1979;-51
2022/07/29 13:09:49;;;;;;;;;;;;;;;30.62;45.79;95131.81;5095738;28;992;-51
2022/07/29 13:12:17;;;;;;;;;;;;;;;30.64;44.82;95132.34;5113725;28;1108;-52
2022/07/29 13:14:44;;;;;;;;;;;;;;;30.50;47.38;95126.66;5113714;28;1044;-52
2022/07/29 13:17:11;;;;;;;;;;;;;;;30.40;49.44;95121.25;5113491;28;1127;-52
2022/07/29 13:19:37;;;;;;;;;;;;;;;30.45;46.71;95123.94;5113559;28;966;-51
2022/07/29 13:22:04;;;;;;;;;;;;;;;30.45;45.88;95124.78;5113610;28;1024;-52
2022/07/29 13:24:30;;;;;;;;;;;;;;;30.52;44.34;95118.94;5113962;28;1035;-52
2022/07/29 13:26:56;;;;;;;;;;;;;;;30.59;46.92;95110.34;5113740;28;1910;-52
2022/07/29 13:29:22;;;;;;;;;;;;;;;30.55;44.52;95112.84;5113696;28;1028;-52
2022/07/29 13:31:48;;;;;;;;;;;;;;;30.58;47.93;95116.94;5113543;28;1029;-52
2022/07/29 13:34:14;;;;;;;;;;;;;;;30.65;47.78;95111.94;5113356;28;1020;-52
2022/07/29 13:36:40;;;;;;;;;;;;;;;30.73;47.59;95111.28;5113378;28;1103;-52
2022/07/29 13:39:06;;;;;;;;;;;;;;;30.71;47.33;95108.00;5113657;28;1045;-52
2022/07/29 13:41:32;;;;;;;;;;;;;;;30.73;47.42;95111.28;5113562;28;974;-52
2022/07/29 13:43:58;;;;;;;;;;;;;;;30.68;47.46;95105.84;5100790;28;1161;-51
2022/07/29 13:46:24;;;;;;;;;;;;;;;30.65;46.79;95109.16;5092878;28;1909;-52
2022/07/29 13:48:50;;;;;;;;;;;;;;;30.67;47.53;95106.94;5093107;28;958;-52
2022/07/29 13:51:16;;;;;;;;;;;;;;;30.63;45.71;95101.19;5092828;28;1024;-51
2022/07/29 13:53:42;;;;;;;;;;;;;;;30.60;47.29;95100.94;5093277;28;959;-51
2022/07/29 13:56:08;;;;;;;;;;;;;;;30.64;47.05;95107.50;5092799;28;1064;-51
2022/07/29 13:58:34;;;;;;;;;;;;;;;30.67;45.69;95106.94;5092974;28;1033;-52
2022/07/29 14:01:00;;;;;;;;;;;;;;;30.72;47.14;95104.97;5092828;28;1068;-52
2022/07/29 14:03:26;;;;;;;;;;;;;;;30.77;48.02;95100.50;5092979;28;964;-52
2022/07/29 14:05:53;;;;;;;;;;;;;;;30.69;46.24;95104.72;5092714;28;1985;-51
2022/07/29 14:08:19;;;;;;;;;;;;;;;30.59;47.52;95107.56;5093059;28;966;-51
2022/07/29 14:10:45;;;;;;;;;;;;;;;30.48;46.78;95107.66;5096529;28;992;-52
2022/07/29 14:13:11;;;;;;;;;;;;;;;30.40;46.92;95108.28;5096564;28;1044;-51
2022/07/29 14:15:37;;;;;;;;;;;;;;;30.32;48.48;95101.44;5096592;28;978;-52
2022/07/29 14:18:03;;;;;;;;;;;;;;;30.27;48.66;95103.38;5096371;28;1267;-52
2022/07/29 14:20:30;;;;;;;;;;;;;;;30.31;47.48;95102.50;5096822;28;956;-52
2022/07/29 14:22:56;;;;;;;;;;;;;;;30.40;50.79;95102.75;5096685;28;973;-52
2022/07/29 14:25:23;;;;;;;;;;;;;;;30.48;48.54;95099.38;5096317;28;1091;-52
2022/07/29 14:27:49;;;;;;;;;;;;;;;30.60;48.37;95111.97;5096395;28;1991;-52
2022/07/29 14:30:15;;;;;;;;;;;;;;;30.70;46.96;95104.44;5096214;28;1099;-51
2022/07/29 14:32:41;;;;;;;;;;;;;;;30.77;46.43;95106.03;5096194;28;1063;-51
2022/07/29 14:35:07;;;;;;;;;;;;;;;30.84;45.61;95095.47;5096096;28;1091;-52
2022/07/29 14:37:35;;;;;;;;;;;;;;;30.86;46.38;95091.31;5096260;28;990;-51
2022/07/29 14:40:03;;;;;;;;;;;;;;;30.86;45.66;95091.31;5096306;28;1061;-51
2022/07/29 14:42:31;;;;;;;;;;;;;;;30.83;44.53;95089.13;5096163;28;1154;-52
2022/07/29 14:44:57;;;;;;;;;;;;;;;30.83;44.25;95082.78;5116450;28;1013;-52
2022/07/29 14:47:23;;;;;;;;;;;;;;;30.79;45.88;95092.75;5116077;28;1918;-51
2022/07/29 14:49:49;;;;;;;;;;;;;;;30.78;44.88;95085.59;5116327;28;1048;-52
2022/07/29 14:52:15;;;;;;;;;;;;;;;30.77;44.90;95093.03;5116288;28;1068;-52
2022/07/29 14:54:41;;;;;;;;;;;;;;;30.66;44.96;95091.53;5116481;28;1036;-51
2022/07/29 14:57:08;;;;;;;;;;;;;;;30.54;45.89;95086.34;5115976;28;1037;-52
2022/07/29 14:59:34;;;;;;;;;;;;;;;30.49;45.13;95086.41;5116123;28;1122;-52
2022/07/29 15:02:00;;;;;;;;;;;;;;;30.45;46.65;95085.31;5115951;28;1069;-51
2022/07/29 15:04:26;;;;;;;;;;;;;;;30.42;47.17;95085.94;5116260;28;1075;-52